createdAt,value
2023-02-03T00:00:08.705Z,9.10
2023-02-03T00:02:56.758Z,6.70
2023-02-03T00:05:25.244Z,8.00
2023-02-03T00:07:53.434Z,9.20
2023-02-03T00:10:21.753Z,13.60
2023-02-03T00:12:51.528Z,8.90
2023-02-03T00:15:20.451Z,6.20
2023-02-03T00:17:49.071Z,8.60
2023-02-03T00:20:17.265Z,7.10
2023-02-03T00:22:45.337Z,11.30
2023-02-03T00:25:13.425Z,7.40
2023-02-03T00:27:41.507Z,6.90
2023-02-03T00:30:10.446Z,8.00
2023-02-03T00:32:39.145Z,5.80
2023-02-03T00:35:07.733Z,7.50
2023-02-03T00:37:35.738Z,6.00
2023-02-03T00:40:04.110Z,9.20
2023-02-03T00:42:32.318Z,8.40
2023-02-03T00:45:00.366Z,7.50
2023-02-03T00:47:28.509Z,7.40
2023-02-03T00:49:56.706Z,9.10
2023-02-03T00:52:24.788Z,7.30
2023-02-03T00:54:52.770Z,7.60
2023-02-03T00:57:20.900Z,6.30
2023-02-03T00:59:49.063Z,7.50
2023-02-03T01:02:17.656Z,7.90
2023-02-03T01:04:45.819Z,7.00
2023-02-03T01:07:13.914Z,6.80
2023-02-03T01:09:42.048Z,8.10
2023-02-03T01:12:10.062Z,5.90
2023-02-03T01:14:38.137Z,6.70
2023-02-03T01:17:06.265Z,6.20
2023-02-03T01:19:34.387Z,8.60
2023-02-03T01:22:02.432Z,7.80
2023-02-03T01:24:31.024Z,9.60
2023-02-03T01:26:59.233Z,8.70
2023-02-03T01:29:27.291Z,7.30
2023-02-03T01:31:55.508Z,5.70
2023-02-03T01:34:23.641Z,6.80
2023-02-03T01:36:52.110Z,9.60
2023-02-03T01:39:20.284Z,6.70
2023-02-03T01:41:48.402Z,6.80
2023-02-03T01:44:36.453Z,6.50
2023-02-03T01:47:13.860Z,5.50
2023-02-03T01:49:48.211Z,6.20
2023-02-03T01:52:17.111Z,8.00
2023-02-03T01:54:47.789Z,7.40
2023-02-03T01:57:26.916Z,5.90
2023-02-03T01:59:57.808Z,7.70
2023-02-03T02:05:41.214Z,7.20
2023-02-03T02:08:09.889Z,7.50
2023-02-03T02:10:37.995Z,6.60
2023-02-03T02:13:06.801Z,7.20
2023-02-03T02:15:58.808Z,6.30
2023-02-03T02:18:54.773Z,6.40
2023-02-03T02:21:34.897Z,7.00
2023-02-03T02:24:32.382Z,6.10
2023-02-03T02:27:02.881Z,7.80
2023-02-03T02:29:49.391Z,7.80
2023-02-03T02:32:17.327Z,6.90
2023-02-03T02:35:22.845Z,6.70
2023-02-03T02:37:50.879Z,6.80
2023-02-03T02:40:47.985Z,10.00
2023-02-03T02:43:43.460Z,5.90
2023-02-03T02:46:14.869Z,5.50
2023-02-03T02:48:56.126Z,6.80
2023-02-03T02:51:24.770Z,6.10
2023-02-03T02:53:56.840Z,10.00
2023-02-03T02:56:27.489Z,6.40
2023-02-03T02:58:58.230Z,7.70
2023-02-03T03:01:26.382Z,6.40
2023-02-03T03:03:54.929Z,7.40
2023-02-03T03:06:29.481Z,6.40
2023-02-03T03:08:57.498Z,5.30
2023-02-03T03:11:29.329Z,7.80
2023-02-03T03:13:57.638Z,8.40
2023-02-03T03:16:31.542Z,6.10
2023-02-03T03:19:04.833Z,5.80
2023-02-03T03:21:40.684Z,7.00
2023-02-03T03:24:12.868Z,5.60
2023-02-03T03:26:43.953Z,6.20
2023-02-03T03:29:31.297Z,6.60
2023-02-03T03:31:59.388Z,5.20
2023-02-03T03:34:28.358Z,7.50
2023-02-03T03:36:56.340Z,7.50
2023-02-03T03:39:39.434Z,5.90
2023-02-03T03:42:13.215Z,5.10
2023-02-03T03:44:52.698Z,6.00
2023-02-03T03:47:50.022Z,4.50
2023-02-03T03:50:41.536Z,6.40
2023-02-03T03:53:10.948Z,6.50
2023-02-03T03:55:41.391Z,5.90
2023-02-03T03:58:13.549Z,5.90
2023-02-03T04:00:43.328Z,6.90
2023-02-03T04:03:17.962Z,6.20
2023-02-03T04:05:46.527Z,5.10
2023-02-03T04:08:14.590Z,6.00
2023-02-03T04:10:43.658Z,8.30
2023-02-03T04:13:13.047Z,5.50
2023-02-03T04:15:41.045Z,6.10
2023-02-03T04:18:13.505Z,5.20
2023-02-03T04:20:42.293Z,7.50
2023-02-03T04:23:11.049Z,6.40
2023-02-03T04:25:39.145Z,6.80
2023-02-03T04:28:07.401Z,6.60
2023-02-03T04:30:35.657Z,7.40
2023-02-03T04:33:03.828Z,6.80
2023-02-03T04:35:31.909Z,7.40
2023-02-03T04:38:00.003Z,7.60
2023-02-03T04:40:28.336Z,10.70
2023-02-03T04:42:56.579Z,7.60
2023-02-03T04:45:24.659Z,7.10
2023-02-03T04:47:54.506Z,9.60
2023-02-03T04:50:22.728Z,4.80
2023-02-03T04:52:50.764Z,6.30
2023-02-03T04:55:18.819Z,7.80
2023-02-03T04:57:46.848Z,10.00
2023-02-03T05:00:15.298Z,8.10
2023-02-03T05:02:43.341Z,9.00
2023-02-03T05:05:11.359Z,8.30
2023-02-03T05:07:39.438Z,8.30
2023-02-03T05:10:07.851Z,7.80
2023-02-03T05:12:35.869Z,8.70
2023-02-03T05:15:04.055Z,7.10
2023-02-03T05:17:32.472Z,8.00
2023-02-03T05:20:00.506Z,7.90
2023-02-03T05:22:28.560Z,6.70
2023-02-03T05:24:56.601Z,7.60
2023-02-03T05:27:24.667Z,7.50
2023-02-03T05:29:52.659Z,8.80
2023-02-03T05:32:20.700Z,6.30
2023-02-03T05:34:48.736Z,6.10
2023-02-03T05:37:16.810Z,7.50
2023-02-03T05:39:44.825Z,5.70
2023-02-03T05:42:12.877Z,6.80
2023-02-03T05:44:41.552Z,7.60
2023-02-03T05:47:09.930Z,6.10
2023-02-03T05:49:38.041Z,6.60
2023-02-03T05:52:06.196Z,6.50
2023-02-03T05:54:34.246Z,5.80
2023-02-03T05:57:02.337Z,6.80
2023-02-03T05:59:30.352Z,5.70
2023-02-03T06:01:58.417Z,6.60
2023-02-03T06:04:26.512Z,7.20
2023-02-03T06:06:54.659Z,7.00
2023-02-03T06:09:22.718Z,7.10
2023-02-03T06:11:50.735Z,5.90
2023-02-03T06:14:18.792Z,7.60
2023-02-03T06:16:46.917Z,8.40
2023-02-03T06:19:16.326Z,6.80
2023-02-03T06:21:44.567Z,6.30
2023-02-03T06:24:12.839Z,7.70
2023-02-03T06:26:40.929Z,9.90
2023-02-03T06:29:08.994Z,7.30
2023-02-03T06:31:37.221Z,6.70
2023-02-03T06:34:05.462Z,5.70
2023-02-03T06:36:33.459Z,6.10
2023-02-03T06:39:01.556Z,6.70
2023-02-03T06:41:30.856Z,7.30
2023-02-03T06:43:59.035Z,6.40
2023-02-03T06:46:30.243Z,6.90
2023-02-03T06:48:58.452Z,7.30
2023-02-03T06:51:26.581Z,8.00
2023-02-03T06:53:54.646Z,5.40
2023-02-03T06:56:22.710Z,6.50
2023-02-03T06:58:50.849Z,7.40
2023-02-03T07:01:19.022Z,6.90
2023-02-03T07:03:47.269Z,7.50
2023-02-03T07:06:15.540Z,10.80
2023-02-03T07:08:43.682Z,8.60
2023-02-03T07:11:11.778Z,5.90
2023-02-03T07:13:39.838Z,9.10
2023-02-03T07:16:07.996Z,7.20
2023-02-03T07:18:46.801Z,7.60
2023-02-03T07:21:17.206Z,6.40
2023-02-03T07:23:48.989Z,8.80
2023-02-03T07:26:17.874Z,6.20
2023-02-03T07:28:45.977Z,7.50
2023-02-03T07:31:14.050Z,7.40
2023-02-03T07:33:42.207Z,9.20
2023-02-03T07:36:10.519Z,9.20
2023-02-03T07:38:39.002Z,7.30
2023-02-03T07:41:07.729Z,7.90
2023-02-03T07:43:35.773Z,5.20
2023-02-03T07:46:04.576Z,7.60
2023-02-03T07:48:32.702Z,10.40
2023-02-03T07:51:00.757Z,8.20
2023-02-03T07:53:28.913Z,7.80
2023-02-03T07:56:01.268Z,8.60
2023-02-03T07:58:30.408Z,8.90
2023-02-03T08:00:59.084Z,10.30
2023-02-03T08:03:27.191Z,8.00
2023-02-03T08:05:55.225Z,10.10
2023-02-03T08:08:23.308Z,8.80
2023-02-03T08:10:51.336Z,8.50
2023-02-03T08:13:19.426Z,9.70
2023-02-03T08:15:47.863Z,6.80
2023-02-03T08:18:15.954Z,7.70
2023-02-03T08:20:44.152Z,7.50
2023-02-03T08:23:12.669Z,6.70
2023-02-03T08:25:40.871Z,6.10
2023-02-03T08:28:09.008Z,6.40
2023-02-03T08:30:37.387Z,6.00
2023-02-03T08:33:05.376Z,7.20
2023-02-03T08:35:33.780Z,5.60
2023-02-03T08:38:01.960Z,5.30
2023-02-03T08:40:30.472Z,5.10
2023-02-03T08:42:58.736Z,6.10
2023-02-03T08:45:26.816Z,7.90
2023-02-03T08:47:54.889Z,7.00
2023-02-03T08:50:23.176Z,6.30
2023-02-03T08:52:51.358Z,5.00
2023-02-03T08:55:19.408Z,7.60
2023-02-03T08:57:47.562Z,8.30
2023-02-03T09:00:16.121Z,6.20
2023-02-03T09:02:44.298Z,7.70
2023-02-03T09:05:12.688Z,7.60
2023-02-03T09:07:40.982Z,6.20
2023-02-03T09:10:09.524Z,7.80
2023-02-03T09:12:37.641Z,5.80
2023-02-03T09:15:06.179Z,6.10
2023-02-03T09:17:34.745Z,6.40
2023-02-03T09:20:03.028Z,5.80
2023-02-03T09:22:31.181Z,5.70
2023-02-03T09:24:59.390Z,7.20
2023-02-03T09:27:27.565Z,6.80
2023-02-03T09:29:55.668Z,6.10
2023-02-03T09:32:23.699Z,5.80
2023-02-03T09:34:51.820Z,7.60
2023-02-03T09:37:19.803Z,7.80
2023-02-03T09:39:49.000Z,6.40
2023-02-03T09:42:25.988Z,6.40
2023-02-03T09:44:56.716Z,6.80
2023-02-03T09:47:31.088Z,5.90
2023-02-03T09:50:03.285Z,6.80
2023-02-03T09:52:34.123Z,6.90
2023-02-03T09:57:40.738Z,6.10
2023-02-03T10:00:21.673Z,6.20
2023-02-03T10:05:35.155Z,5.70
2023-02-03T10:08:14.728Z,6.00
2023-02-03T10:11:09.922Z,6.10
2023-02-03T10:14:01.433Z,5.20
2023-02-03T10:16:47.829Z,5.20
2023-02-03T10:19:24.158Z,5.50
2023-02-03T10:21:59.250Z,5.30
2023-02-03T10:24:50.653Z,4.50
2023-02-03T10:27:21.959Z,5.50
2023-02-03T10:29:56.722Z,4.10
2023-02-03T10:32:27.704Z,4.60
2023-02-03T10:37:30.446Z,7.10
2023-02-03T10:40:01.417Z,3.80
2023-02-03T10:42:49.603Z,5.00
2023-02-03T10:45:17.909Z,4.60
2023-02-03T10:47:52.529Z,4.70
2023-02-03T10:50:24.560Z,5.00
2023-02-03T10:52:52.772Z,4.80
2023-02-03T10:55:26.716Z,4.40
2023-02-03T10:57:55.264Z,6.90
2023-02-03T11:00:31.953Z,4.30
2023-02-03T11:03:26.176Z,6.10
2023-02-03T11:06:13.352Z,5.50
2023-02-03T11:08:44.656Z,4.50
2023-02-03T11:11:21.447Z,5.60
2023-02-03T11:14:12.684Z,4.30
2023-02-03T11:16:44.135Z,4.00
2023-02-03T11:19:21.778Z,3.00
2023-02-03T11:21:52.572Z,3.00
2023-02-03T11:24:24.252Z,4.10
2023-02-03T11:26:55.548Z,3.70
2023-02-03T11:29:29.685Z,5.20
2023-02-03T11:32:01.752Z,6.20
2023-02-03T11:34:56.795Z,3.20
2023-02-03T11:37:30.020Z,3.80
2023-02-03T11:40:21.173Z,2.30
2023-02-03T11:42:49.191Z,4.40
2023-02-03T11:45:29.058Z,4.60
2023-02-03T11:48:02.566Z,4.90
2023-02-03T11:50:47.262Z,2.90
2023-02-03T11:53:56.287Z,3.70
2023-02-03T11:56:49.462Z,3.30
2023-02-03T11:59:35.923Z,3.10
2023-02-03T12:02:06.696Z,3.90
2023-02-03T12:05:06.427Z,3.30
2023-02-03T12:07:42.368Z,6.10
2023-02-03T12:10:54.987Z,2.70
2023-02-03T12:14:01.921Z,3.30
2023-02-03T12:17:03.525Z,6.10
2023-02-03T12:19:56.726Z,4.90
2023-02-03T12:22:48.718Z,5.20
2023-02-03T12:25:23.012Z,4.70
2023-02-03T12:28:27.379Z,5.30
2023-02-03T12:31:07.898Z,4.30
2023-02-03T12:33:44.420Z,6.10
2023-02-03T12:36:18.117Z,3.90
2023-02-03T12:39:00.603Z,4.10
2023-02-03T12:41:38.820Z,5.30
2023-02-03T12:44:19.733Z,4.30
2023-02-03T12:49:34.101Z,3.30
2023-02-03T12:52:14.577Z,3.10
2023-02-03T12:54:52.941Z,4.20
2023-02-03T12:57:45.574Z,3.40
2023-02-03T13:00:41.377Z,6.10
2023-02-03T13:03:13.387Z,4.40
2023-02-03T13:05:47.375Z,4.00
2023-02-03T13:08:44.540Z,5.10
2023-02-03T13:11:27.866Z,5.60
2023-02-03T13:14:15.739Z,4.60
2023-02-03T13:16:48.267Z,4.40
2023-02-03T13:19:22.706Z,3.50
2023-02-03T13:21:51.556Z,4.10
2023-02-03T13:24:24.010Z,4.40
2023-02-03T13:26:59.316Z,4.60
2023-02-03T13:30:08.931Z,5.20
2023-02-03T13:32:51.339Z,4.10
2023-02-03T13:35:51.585Z,4.50
2023-02-03T13:38:59.978Z,4.30
2023-02-03T13:41:51.081Z,5.60
2023-02-03T13:44:28.217Z,4.90
2023-02-03T13:46:59.960Z,4.30
2023-02-03T13:49:40.496Z,5.20
2023-02-03T13:52:25.083Z,6.60
2023-02-03T13:54:53.453Z,10.20
2023-02-03T13:57:26.965Z,4.70
2023-02-03T13:59:55.168Z,6.30
2023-02-03T14:02:40.744Z,5.00
2023-02-03T14:05:51.260Z,5.20
2023-02-03T14:08:28.150Z,4.90
2023-02-03T14:11:33.608Z,4.70
2023-02-03T14:14:04.593Z,4.20
2023-02-03T14:16:40.426Z,7.50
2023-02-03T14:19:31.585Z,5.60
2023-02-03T14:22:02.968Z,5.10
2023-02-03T14:24:45.911Z,9.20
2023-02-03T14:27:25.066Z,6.20
2023-02-03T14:30:08.019Z,8.50
2023-02-03T14:32:55.273Z,7.10
2023-02-03T14:35:34.005Z,6.60
2023-02-03T14:38:04.868Z,5.70
2023-02-03T14:43:25.762Z,7.10
2023-02-03T14:46:11.805Z,6.20
2023-02-03T14:48:42.761Z,5.70
2023-02-03T14:53:59.789Z,5.80
2023-02-03T14:57:04.477Z,4.30
2023-02-03T14:59:45.032Z,4.90
2023-02-03T15:02:17.401Z,7.10
2023-02-03T15:04:46.464Z,7.20
2023-02-03T15:07:48.754Z,16.80
2023-02-03T15:10:27.253Z,5.70
2023-02-03T15:12:58.410Z,6.80
2023-02-03T15:15:32.095Z,6.90
2023-02-03T15:18:20.641Z,7.00
2023-02-03T15:20:53.761Z,7.60
2023-02-03T15:23:22.989Z,6.90
2023-02-03T15:25:55.238Z,7.10
2023-02-03T15:28:25.365Z,7.40
2023-02-03T15:31:02.970Z,5.40
2023-02-03T15:33:33.002Z,6.30
2023-02-03T15:36:10.079Z,6.50
2023-02-03T15:38:46.701Z,7.20
2023-02-03T15:41:25.356Z,6.30
2023-02-03T15:44:00.142Z,5.70
2023-02-03T15:46:28.199Z,10.20
2023-02-03T15:49:03.999Z,7.60
2023-02-03T15:51:40.551Z,6.70
2023-02-03T15:54:41.338Z,5.90
2023-02-03T15:57:24.208Z,5.90
2023-02-03T16:00:02.179Z,7.40
2023-02-03T16:02:35.076Z,7.50
2023-02-03T16:05:20.607Z,7.20
2023-02-03T16:07:48.698Z,4.80
2023-02-03T16:10:28.810Z,6.70
2023-02-03T16:13:20.466Z,6.10
2023-02-03T16:15:59.974Z,6.10
2023-02-03T16:18:28.187Z,5.40
2023-02-03T16:20:56.395Z,5.30
2023-02-03T16:23:28.516Z,5.80
2023-02-03T16:26:07.042Z,5.20
2023-02-03T16:28:53.813Z,4.90
2023-02-03T16:31:40.666Z,6.90
2023-02-03T16:34:38.319Z,5.80
2023-02-03T16:38:01.313Z,5.70
2023-02-03T16:40:48.021Z,5.00
2023-02-03T16:43:35.259Z,7.00
2023-02-03T16:46:21.956Z,6.50
2023-02-03T16:49:08.321Z,7.10
2023-02-03T16:51:41.677Z,7.00
2023-02-03T16:54:13.327Z,7.00
2023-02-03T16:56:41.833Z,6.80
2023-02-03T16:59:10.934Z,6.00
2023-02-03T17:01:39.782Z,6.70
2023-02-03T17:04:08.526Z,9.70
2023-02-03T17:06:41.434Z,7.10
2023-02-03T17:09:09.776Z,6.50
2023-02-03T17:11:38.372Z,10.80
2023-02-03T17:14:06.619Z,6.70
2023-02-03T17:16:34.728Z,7.40
2023-02-03T17:19:02.948Z,8.50
2023-02-03T17:21:31.707Z,7.20
2023-02-03T17:24:00.093Z,8.10
2023-02-03T17:26:29.110Z,7.90
2023-02-03T17:29:03.227Z,9.00
2023-02-03T17:31:32.086Z,7.50
2023-02-03T17:34:00.695Z,8.30
2023-02-03T17:36:28.733Z,8.50
2023-02-03T17:55:32.879Z,11.00
2023-02-03T17:58:01.286Z,10.50
2023-02-03T18:00:29.857Z,12.20
2023-02-03T18:02:58.282Z,11.10
2023-02-03T18:05:26.633Z,11.00
2023-02-03T18:07:55.375Z,11.80
2023-02-03T18:10:23.386Z,11.30
2023-02-03T18:12:51.472Z,10.60
2023-02-03T18:15:19.617Z,10.70
2023-02-03T18:17:47.678Z,9.90
2023-02-03T18:20:15.846Z,10.80
2023-02-03T18:22:45.095Z,12.30
2023-02-03T18:25:16.913Z,11.90
2023-02-03T18:27:45.141Z,12.10
2023-02-03T18:30:15.229Z,11.40
2023-02-03T18:32:44.177Z,11.80
2023-02-03T18:35:16.918Z,13.80
2023-02-03T18:37:45.213Z,13.60
2023-02-03T18:40:13.552Z,11.10
2023-02-03T18:42:41.669Z,14.80
2023-02-03T18:45:11.177Z,11.30
2023-02-03T18:47:39.330Z,10.60
2023-02-03T18:50:07.589Z,11.30
2023-02-03T18:52:35.761Z,12.40
2023-02-03T18:55:04.310Z,13.50
2023-02-03T18:57:32.382Z,12.00
2023-02-03T19:00:00.736Z,12.70
2023-02-03T19:02:29.084Z,14.60
2023-02-03T19:04:57.407Z,13.30
2023-02-03T19:07:26.456Z,12.40
2023-02-03T19:09:54.789Z,13.60
2023-02-03T19:12:22.973Z,14.40
2023-02-03T19:14:51.109Z,11.50
2023-02-03T19:17:19.871Z,14.60
2023-02-03T19:19:48.025Z,11.50
2023-02-03T19:22:16.179Z,11.70
2023-02-03T19:24:44.616Z,14.70
2023-02-03T19:27:12.965Z,13.70
2023-02-03T19:29:41.186Z,13.10
2023-02-03T19:32:09.931Z,15.30
2023-02-03T19:34:38.587Z,13.20
2023-02-03T19:37:07.344Z,13.40
2023-02-03T19:39:35.895Z,11.30
2023-02-03T19:42:04.223Z,10.70
2023-02-03T19:44:32.394Z,9.90
2023-02-03T19:47:00.545Z,11.10
2023-02-03T19:49:28.894Z,12.80
2023-02-03T19:51:57.068Z,11.20
2023-02-03T19:54:25.199Z,11.50
2023-02-03T19:56:53.355Z,10.60
2023-02-03T19:59:21.493Z,10.10
2023-02-03T20:01:49.933Z,10.50
2023-02-03T20:04:18.141Z,12.50
2023-02-03T20:06:46.291Z,11.10
2023-02-03T20:09:14.453Z,12.70
2023-02-03T20:11:42.592Z,11.30
2023-02-03T20:14:12.713Z,10.90
2023-02-03T20:16:40.856Z,12.60
2023-02-03T20:19:09.012Z,9.90
2023-02-03T20:21:37.433Z,10.60
2023-02-03T20:24:05.613Z,13.80
2023-02-03T20:26:33.703Z,10.70
2023-02-03T20:29:01.831Z,13.00
2023-02-03T20:31:30.044Z,10.40
2023-02-03T20:33:58.308Z,10.40
2023-02-03T20:36:26.483Z,10.20
2023-02-03T20:38:54.585Z,10.40
2023-02-03T20:41:22.856Z,10.60
2023-02-03T20:43:50.926Z,10.30
2023-02-03T20:46:19.967Z,10.30
2023-02-03T20:48:48.552Z,11.00
2023-02-03T20:51:18.637Z,11.00
2023-02-03T20:53:48.079Z,11.30
2023-02-03T20:56:18.456Z,13.00
2023-02-03T20:58:46.567Z,10.60
2023-02-03T21:01:20.944Z,10.50
2023-02-03T21:04:07.585Z,12.90
2023-02-03T21:06:36.269Z,10.30
2023-02-03T21:09:15.036Z,11.40
2023-02-03T21:11:43.678Z,10.10
2023-02-03T21:14:20.810Z,11.00
2023-02-03T21:16:50.092Z,10.50
2023-02-03T21:19:33.816Z,9.20
2023-02-03T21:22:15.189Z,10.70
2023-02-03T21:24:48.194Z,11.00
2023-02-03T21:27:34.925Z,11.80
2023-02-03T21:30:22.757Z,11.40
2023-02-03T21:32:50.829Z,10.70
2023-02-03T21:35:29.609Z,11.00
2023-02-03T21:38:03.036Z,10.20
2023-02-03T21:40:35.330Z,11.10
2023-02-03T21:43:03.568Z,10.60
2023-02-03T21:45:58.264Z,12.10
2023-02-03T21:48:27.968Z,10.50
2023-02-03T21:51:16.517Z,11.20
2023-02-03T21:53:50.377Z,11.60
2023-02-03T21:56:21.386Z,11.10
2023-02-03T21:58:51.023Z,11.00
2023-02-03T22:01:23.064Z,13.90
2023-02-03T22:03:52.827Z,12.40
2023-02-03T22:06:20.980Z,10.70
2023-02-03T22:08:58.800Z,12.60
2023-02-03T22:11:29.829Z,12.80
2023-02-03T22:13:57.920Z,11.60
2023-02-03T22:16:26.242Z,18.80
2023-02-03T22:18:54.371Z,12.50
2023-02-03T22:21:22.770Z,12.90
2023-02-03T22:23:50.955Z,12.50
2023-02-03T22:26:20.133Z,14.10
2023-02-03T22:28:48.347Z,16.70
2023-02-03T22:31:17.634Z,12.60
2023-02-03T22:33:46.547Z,12.80
2023-02-03T22:36:14.769Z,15.40
2023-02-03T22:38:43.117Z,14.90
2023-02-03T22:41:14.704Z,16.10
2023-02-03T22:43:42.809Z,16.20
2023-02-03T22:46:11.469Z,16.20
2023-02-03T22:48:39.615Z,15.60
2023-02-03T22:51:07.762Z,11.80
2023-02-03T22:53:35.886Z,14.30
2023-02-03T22:56:04.161Z,15.70
2023-02-03T22:58:32.152Z,12.70
2023-02-03T23:01:00.261Z,17.20
2023-02-03T23:03:32.183Z,18.30
2023-02-03T23:06:00.429Z,15.30
2023-02-03T23:08:28.637Z,17.30
2023-02-03T23:10:57.049Z,14.10
2023-02-03T23:13:25.331Z,14.60
2023-02-03T23:15:53.516Z,13.80
2023-02-03T23:18:21.626Z,14.00
2023-02-03T23:20:49.701Z,17.10
2023-02-03T23:23:17.738Z,17.00
2023-02-03T23:25:45.896Z,15.30
2023-02-03T23:28:14.023Z,12.80
2023-02-03T23:30:42.188Z,16.10
2023-02-03T23:33:10.334Z,13.10
2023-02-03T23:35:47.612Z,24.00
2023-02-03T23:38:17.360Z,13.40
2023-02-03T23:40:45.529Z,16.10
2023-02-03T23:43:14.506Z,17.20
2023-02-03T23:45:42.667Z,15.00
2023-02-03T23:48:11.125Z,20.50
2023-02-03T23:50:39.529Z,15.60
2023-02-03T23:53:07.637Z,16.60
2023-02-03T23:55:36.576Z,13.60
2023-02-03T23:58:05.136Z,18.00
